Time;durP1;ratioP1;P1;durP2;ratioP2;P2;SDS_P1;SDS_P2;PMS_P1;PMS_P2;Temp;Humidity;BMP_temperature;BMP_pressure;BME280_temperature;BME280_humidity;BME280_pressure;Samples;Min_cycle;Max_cycle;Signal;HPM_P1;HPM_P2
2022/03/03 00:01:00;;;;;;;25.48;12.40;;;;;;;-0.75;100.00;101383.66;5192439;28;20022;-78
2022/03/03 00:03:30;;;;;;;23.23;12.25;;;;;;;-0.88;100.00;101394.44;5211658;28;20033;-78
2022/03/03 00:06:00;;;;;;;22.70;12.77;;;;;;;-0.89;100.00;101390.16;5210261;28;20087;-78
2022/03/03 00:08:30;;;;;;;22.50;11.93;;;;;;;-0.93;100.00;101393.47;5193891;28;20633;-78
2022/03/03 00:11:01;;;;;;;21.83;12.50;;;;;;;-0.83;100.00;101385.16;5193491;28;20029;-79
2022/03/03 00:13:31;;;;;;;25.77;13.18;;;;;;;-0.78;100.00;101388.69;5192620;28;20035;-78
2022/03/03 00:16:02;;;;;;;20.50;11.57;;;;;;;-0.62;100.00;101381.38;5218013;28;20408;-78
2022/03/03 00:18:33;;;;;;;24.55;12.00;;;;;;;-0.64;100.00;101389.84;5207830;28;20116;-79
2022/03/03 00:21:03;;;;;;;22.60;12.57;;;;;;;-0.72;100.00;101382.00;5200231;28;20115;-79
2022/03/03 00:23:33;;;;;;;20.25;11.43;;;;;;;-0.79;100.00;101385.25;5212668;28;20025;-78
2022/03/03 00:26:04;;;;;;;19.90;11.25;;;;;;;-0.83;100.00;101380.03;5196529;28;20028;-78
2022/03/03 00:28:34;;;;;;;21.00;11.88;;;;;;;-0.87;100.00;101381.63;5193923;28;20137;-79
2022/03/03 00:31:05;;;;;;;20.60;11.60;;;;;;;-0.79;100.00;101386.94;5214219;28;20067;-78
2022/03/03 00:33:35;;;;;;;19.88;11.38;;;;;;;-0.91;100.00;101394.38;5210297;28;20025;-78
2022/03/03 00:36:06;;;;;;;21.38;11.75;;;;;;;-1.06;100.00;101402.56;5213651;28;20029;-79
2022/03/03 00:38:36;;;;;;;22.20;11.73;;;;;;;-0.98;100.00;101402.75;5210215;28;20538;-79
2022/03/03 00:41:07;;;;;;;20.70;11.65;;;;;;;-0.98;100.00;101392.50;5196863;28;20052;-78
2022/03/03 00:43:37;;;;;;;22.60;11.45;;;;;;;-0.99;100.00;101393.31;5192357;28;20116;-78
2022/03/03 00:46:07;;;;;;;19.58;11.30;;;;;;;-0.97;100.00;101401.91;5215124;28;20025;-79
2022/03/03 00:48:38;;;;;;;22.52;11.45;;;;;;;-1.08;100.00;101388.00;5218248;28;20033;-78
2022/03/03 00:51:08;;;;;;;23.65;11.98;;;;;;;-1.03;100.00;101379.53;5200985;28;20025;-78
2022/03/03 00:53:39;;;;;;;20.02;11.23;;;;;;;-0.92;100.00;101369.56;5217600;28;20477;-78
2022/03/03 00:56:09;;;;;;;25.90;11.95;;;;;;;-0.88;100.00;101366.22;5191876;28;20048;-78
2022/03/03 00:58:39;;;;;;;20.17;11.05;;;;;;;-0.97;100.00;101372.03;5213934;28;20471;-78
2022/03/03 01:01:10;;;;;;;19.02;10.75;;;;;;;-0.92;100.00;101364.44;5208373;28;20054;-78
2022/03/03 01:03:40;;;;;;;21.80;11.68;;;;;;;-0.92;100.00;101357.59;5193431;28;20028;-79
2022/03/03 01:06:11;;;;;;;20.95;11.27;;;;;;;-1.01;100.00;101353.94;5212134;28;20036;-78
2022/03/03 01:08:41;;;;;;;18.70;10.93;;;;;;;-1.10;100.00;101357.16;5190082;28;20024;-78
2022/03/03 01:11:12;;;;;;;18.83;10.98;;;;;;;-1.32;100.00;101360.06;5209253;28;20084;-78
2022/03/03 01:13:42;;;;;;;21.95;11.20;;;;;;;-1.34;100.00;101363.41;5211229;28;20032;-78
2022/03/03 01:16:12;;;;;;;19.73;10.20;;;;;;;-1.47;100.00;101363.94;5211399;28;20021;-78
2022/03/03 01:18:43;;;;;;;18.80;10.27;;;;;;;-1.33;100.00;101360.00;5215941;28;20458;-78
2022/03/03 01:21:13;;;;;;;20.77;11.30;;;;;;;-1.18;100.00;101361.28;5214388;28;20025;-79
2022/03/03 01:23:43;;;;;;;19.08;10.38;;;;;;;-0.96;100.00;101357.47;5214168;28;20028;-78
2022/03/03 01:26:14;;;;;;;21.73;10.90;;;;;;;-1.01;100.00;101354.84;5212534;28;20026;-78
2022/03/03 01:28:44;;;;;;;18.77;10.02;;;;;;;-0.81;99.61;101355.25;5215530;28;20081;-78
2022/03/03 01:31:15;;;;;;;18.20;10.07;;;;;;;-1.09;98.90;101346.09;5213345;28;20028;-78
2022/03/03 01:33:45;;;;;;;18.25;10.18;;;;;;;-1.13;100.00;101354.53;5212726;28;20033;-79
2022/03/03 01:36:15;;;;;;;20.73;10.90;;;;;;;-1.22;100.00;101348.34;5211797;28;20112;-79
2022/03/03 01:38:46;;;;;;;19.88;10.75;;;;;;;-1.21;100.00;101337.25;5187256;28;20025;-78
2022/03/03 01:41:16;;;;;;;19.50;10.80;;;;;;;-1.27;100.00;101340.53;5186818;28;20108;-79
2022/03/03 01:43:46;;;;;;;19.92;11.82;;;;;;;-1.34;100.00;101337.78;5213474;28;20084;-79
2022/03/03 01:46:17;;;;;;;21.73;11.65;;;;;;;-1.37;100.00;101337.72;5221625;28;20028;-79
2022/03/03 01:48:47;;;;;;;20.42;11.50;;;;;;;-1.27;100.00;101339.69;5198143;28;20573;-79
2022/03/03 01:51:17;;;;;;;24.40;12.25;;;;;;;-1.24;100.00;101319.22;5219418;28;20065;-79
2022/03/03 01:53:48;;;;;;;21.10;12.00;;;;;;;-1.36;100.00;101326.63;5217495;28;20026;-79
2022/03/03 01:56:19;;;;;;;20.48;12.10;;;;;;;-1.47;100.00;101325.50;5195935;28;20037;-78
2022/03/03 01:58:50;;;;;;;21.63;11.50;;;;;;;-1.45;100.00;101322.16;5211332;28;20037;-79
2022/03/03 02:01:20;;;;;;;21.55;11.85;;;;;;;-1.61;100.00;101326.88;5195333;28;20029;-79
2022/03/03 02:03:50;;;;;;;21.67;11.45;;;;;;;-1.56;100.00;101333.81;5212080;28;20040;-78
2022/03/03 02:06:20;;;;;;;21.75;12.02;;;;;;;-1.55;100.00;101337.25;5212108;28;20498;-79
2022/03/03 02:08:54;;;;;;;21.10;11.50;;;;;;;-1.49;100.00;101333.16;5211556;28;20492;-79
2022/03/03 02:11:25;;;;;;;22.30;12.15;;;;;;;-1.40;100.00;101327.38;5193653;28;20534;-79
2022/03/03 02:13:56;;;;;;;22.13;11.48;;;;;;;-1.50;100.00;101325.41;5211609;28;20044;-79
2022/03/03 02:16:26;;;;;;;24.50;12.07;;;;;;;-1.81;100.00;101330.59;5195438;28;20033;-79
2022/03/03 02:18:56;;;;;;;22.30;11.85;;;;;;;-1.85;100.00;101320.25;5212768;28;20060;-78
2022/03/03 02:21:27;;;;;;;22.90;12.13;;;;;;;-1.73;100.00;101313.75;5220086;28;20040;-80
2022/03/03 02:23:57;;;;;;;21.48;12.43;;;;;;;-1.91;100.00;101326.09;5216809;28;20021;-79
2022/03/03 02:26:27;;;;;;;24.40;12.05;;;;;;;-1.89;100.00;101324.44;5197654;28;20029;-78
2022/03/03 02:28:58;;;;;;;22.92;12.30;;;;;;;-1.76;100.00;101308.56;5196786;28;20061;-79
2022/03/03 02:31:28;;;;;;;23.55;12.52;;;;;;;-1.74;100.00;101310.31;5215181;28;20029;-78
2022/03/03 02:33:58;;;;;;;24.20;11.57;;;;;;;-1.94;100.00;101315.78;5196205;28;20031;-79
2022/03/03 02:36:29;;;;;;;22.50;12.15;;;;;;;-1.92;100.00;101311.56;5217201;28;20021;-78
2022/03/03 02:39:02;;;;;;;22.65;12.00;;;;;;;-1.81;100.00;101312.66;5213492;28;20040;-79
2022/03/03 02:41:33;;;;;;;25.83;12.98;;;;;;;-1.72;100.00;101312.91;5206836;28;20554;-79
2022/03/03 02:44:04;;;;;;;27.30;12.80;;;;;;;-1.60;100.00;101303.84;5206742;28;20289;-78
2022/03/03 02:46:34;;;;;;;23.33;11.65;;;;;;;-1.37;100.00;101296.69;5213173;28;20026;-79
2022/03/03 02:49:05;;;;;;;24.38;11.63;;;;;;;-1.57;99.24;101290.25;5187973;28;20036;-78
2022/03/03 02:51:36;;;;;;;21.80;11.43;;;;;;;-1.53;98.62;101286.91;5214846;28;20537;-79
2022/03/03 02:54:07;;;;;;;19.55;10.60;;;;;;;-1.77;100.00;101286.34;5212014;28;20375;-79
2022/03/03 02:57:53;;;;;;;26.15;11.90;;;;;;;-1.80;100.00;101287.13;5211807;28;20028;-79
2022/03/03 02:59:27;;;;;;;21.90;11.63;;;;;;;-1.80;100.00;101283.66;5212390;28;20549;-78
2022/03/03 03:01:58;;;;;;;22.20;12.38;;;;;;;-1.86;100.00;101280.97;5216619;28;20033;-79
2022/03/03 03:04:28;;;;;;;21.83;11.88;;;;;;;-1.88;100.00;101280.06;5195690;28;20035;-79
2022/03/03 03:06:58;;;;;;;21.33;11.82;;;;;;;-1.88;100.00;101280.06;5213025;28;20041;-79
2022/03/03 03:09:29;;;;;;;22.90;12.20;;;;;;;-2.02;100.00;101294.19;5211996;28;20025;-79
2022/03/03 03:11:59;;;;;;;25.40;13.25;;;;;;;-1.94;100.00;101290.16;5210301;28;20177;-78
2022/03/03 03:14:30;;;;;;;22.90;12.00;;;;;;;-1.95;100.00;101288.44;5210673;28;20025;-79
2022/03/03 03:17:00;;;;;;;23.33;12.15;;;;;;;-2.03;100.00;101287.34;5215255;28;20032;-80
2022/03/03 03:19:31;;;;;;;23.25;12.23;;;;;;;-2.01;100.00;101290.81;5217508;28;20021;-79
2022/03/03 03:22:03;;;;;;;26.00;12.57;;;;;;;-1.99;100.00;101289.16;5211864;28;20044;-79
2022/03/03 03:24:33;;;;;;;23.65;13.23;;;;;;;-2.06;100.00;101277.03;5213959;28;20506;-79
2022/03/03 03:27:04;;;;;;;23.17;12.55;;;;;;;-2.06;100.00;101283.84;5196761;28;20072;-79
2022/03/03 03:29:34;;;;;;;24.75;12.40;;;;;;;-1.97;100.00;101273.84;5196483;28;20033;-79
2022/03/03 03:32:05;;;;;;;26.08;11.57;;;;;;;-1.88;100.00;101266.38;5213387;28;20188;-79
2022/03/03 03:34:35;;;;;;;23.95;13.13;;;;;;;-1.92;100.00;101273.16;5214005;28;20039;-79
2022/03/03 03:37:05;;;;;;;26.55;12.52;;;;;;;-1.95;100.00;101280.75;5195502;28;20086;-79
2022/03/03 03:39:36;;;;;;;21.02;12.00;;;;;;;-2.06;100.00;101284.72;5214833;28;20024;-79
2022/03/03 03:42:06;;;;;;;19.85;11.35;;;;;;;-2.09;100.00;101282.09;5214159;28;20054;-79
2022/03/03 03:44:38;;;;;;;22.40;11.82;;;;;;;-2.21;100.00;101284.31;5213966;28;20122;-79
2022/03/03 03:47:09;;;;;;;20.88;11.52;;;;;;;-2.17;100.00;101277.59;5216684;28;20029;-79
2022/03/03 03:49:40;;;;;;;23.33;12.43;;;;;;;-2.20;100.00;101278.38;5213466;28;20116;-80
2022/03/03 03:52:10;;;;;;;24.70;12.27;;;;;;;-2.22;100.00;101272.34;5213466;22;20116;-77
2022/03/03 03:54:40;;;;;;;21.23;11.70;;;;;;;-2.25;100.00;101279.94;5230871;28;20037;-74
2022/03/03 03:57:10;;;;;;;21.90;11.80;;;;;;;-2.22;100.00;101285.13;5227972;28;20264;-77
2022/03/03 03:59:41;;;;;;;25.80;12.20;;;;;;;-2.09;100.00;101286.31;5229261;28;20405;-77
2022/03/03 04:02:11;;;;;;;23.55;12.82;;;;;;;-2.28;100.00;101286.66;5229333;28;20025;-77
2022/03/03 04:04:41;;;;;;;21.75;11.52;;;;;;;-2.32;100.00;101288.25;5219772;28;20021;-77
2022/03/03 04:07:12;;;;;;;22.85;11.88;;;;;;;-2.21;100.00;101284.31;5219227;28;20394;-77
2022/03/03 04:09:42;;;;;;;24.40;12.23;;;;;;;-2.09;100.00;101271.84;5219503;28;20109;-77
2022/03/03 04:12:12;;;;;;;24.88;13.00;;;;;;;-2.14;100.00;101275.97;5218325;28;20478;-76
2022/03/03 04:14:42;;;;;;;23.70;12.95;;;;;;;-2.22;100.00;101271.47;5219526;28;20024;-75
2022/03/03 04:17:13;;;;;;;22.25;12.18;;;;;;;-2.22;100.00;101272.34;5217484;28;20387;-74
2022/03/03 04:19:43;;;;;;;20.90;11.93;;;;;;;-2.24;100.00;101274.00;5213588;28;20068;-74
2022/03/03 04:22:13;;;;;;;23.85;12.50;;;;;;;-2.14;100.00;101265.72;5210939;28;20494;-76
2022/03/03 04:24:43;;;;;;;23.98;13.00;;;;;;;-2.18;100.00;101258.78;5209299;28;20094;-77
2022/03/03 04:27:14;;;;;;;25.58;12.48;;;;;;;-2.18;100.00;101263.91;5208813;28;20028;-77
2022/03/03 04:29:44;;;;;;;24.55;12.63;;;;;;;-2.24;100.00;101268.88;5218416;28;20475;-77
2022/03/03 04:32:15;;;;;;;23.77;12.50;;;;;;;-2.41;100.00;101275.25;5218748;28;20045;-77
2022/03/03 04:34:45;;;;;;;27.35;12.48;;;;;;;-2.40;100.00;101276.97;5220224;28;20028;-75
2022/03/03 04:37:15;;;;;;;24.35;12.70;;;;;;;-2.45;100.00;101275.09;5219718;28;20068;-77
2022/03/03 04:39:46;;;;;;;24.30;12.15;;;;;;;-2.58;100.00;101280.72;5220363;28;20402;-75
2022/03/03 04:42:16;;;;;;;22.80;11.90;;;;;;;-2.53;100.00;101274.91;5219510;28;20033;-76
2022/03/03 04:44:46;;;;;;;25.65;13.50;;;;;;;-2.48;100.00;101278.44;5219619;28;20024;-76
2022/03/03 04:47:17;;;;;;;25.05;12.05;;;;;;;-2.42;100.00;101273.50;5217567;28;20426;-77
2022/03/03 04:49:47;;;;;;;25.58;13.02;;;;;;;-2.47;100.00;101280.16;5219359;28;20017;-77
2022/03/03 04:52:17;;;;;;;25.33;11.77;;;;;;;-2.42;100.00;101286.31;5200780;28;20457;-77
2022/03/03 04:54:49;;;;;;;22.92;12.38;;;;;;;-2.46;100.00;101289.59;5219776;28;20082;-77
2022/03/03 04:57:20;;;;;;;23.13;11.88;;;;;;;-2.46;100.00;101279.38;5201918;28;20093;-77
2022/03/03 04:59:50;;;;;;;23.98;11.68;;;;;;;-2.47;100.00;101290.41;5193719;28;20475;-78
2022/03/03 05:02:20;;;;;;;22.33;12.38;;;;;;;-2.50;100.00;101300.56;5189792;28;20060;-77
2022/03/03 05:04:50;;;;;;;24.27;12.55;;;;;;;-2.48;100.00;101292.94;5208372;28;20151;-77
2022/03/03 05:07:21;;;;;;;25.08;12.27;;;;;;;-2.62;100.00;101292.56;5207276;28;20166;-77
2022/03/03 05:09:51;;;;;;;24.77;12.00;;;;;;;-2.56;100.00;101290.16;5190138;28;20033;-77
2022/03/03 05:12:21;;;;;;;28.20;12.48;;;;;;;-2.48;100.00;101283.56;5190027;28;20091;-77
2022/03/03 05:14:51;;;;;;;23.75;12.27;;;;;;;-2.69;100.00;101282.97;5191297;28;20059;-77
2022/03/03 05:17:22;;;;;;;25.33;12.15;;;;;;;-2.72;100.00;101290.56;5205054;28;20471;-77
2022/03/03 05:19:54;;;;;;;22.90;11.63;;;;;;;-2.65;100.00;101282.22;5188664;28;20028;-78
2022/03/03 05:22:24;;;;;;;24.77;12.02;;;;;;;-2.62;100.00;101282.34;5209826;28;20040;-77
2022/03/03 05:24:55;;;;;;;22.05;11.10;;;;;;;-2.62;100.00;101282.34;5205748;28;20295;-77
2022/03/03 05:27:26;;;;;;;23.92;12.38;;;;;;;-2.67;100.00;101281.31;5217006;28;20542;-77
2022/03/03 05:29:56;;;;;;;23.88;11.98;;;;;;;-2.49;100.00;101281.81;5223538;28;20024;-77
2022/03/03 05:32:26;;;;;;;20.65;11.98;;;;;;;-2.62;100.00;101279.78;5205163;28;20098;-77
2022/03/03 05:34:57;;;;;;;23.52;12.32;;;;;;;-2.69;100.00;101295.75;5223769;28;20040;-77
2022/03/03 05:37:27;;;;;;;26.15;12.57;;;;;;;-2.58;100.00;101294.38;5205847;28;20029;-77
2022/03/03 05:39:57;;;;;;;23.02;12.55;;;;;;;-2.55;100.00;101281.66;5223450;28;20037;-77
2022/03/03 05:42:28;;;;;;;25.20;12.13;;;;;;;-2.65;100.00;101289.03;5204768;28;20056;-77
2022/03/03 05:44:58;;;;;;;24.65;12.10;;;;;;;-2.83;100.00;101294.47;5222773;28;20074;-77
2022/03/03 05:47:29;;;;;;;22.08;11.40;;;;;;;-2.94;100.00;101290.75;5204831;28;20029;-78
2022/03/03 05:50:00;;;;;;;23.80;11.77;;;;;;;-2.88;100.00;101285.81;5222211;28;20029;-77
2022/03/03 05:52:30;;;;;;;26.75;12.50;;;;;;;-2.72;100.00;101277.75;5222547;28;20033;-77
2022/03/03 05:55:01;;;;;;;25.60;12.32;;;;;;;-2.64;100.00;101280.53;5223604;28;20033;-78
2022/03/03 05:57:35;;;;;;;28.20;13.43;;;;;;;-2.56;100.00;101269.69;5222434;28;20478;-77
2022/03/03 06:00:12;;;;;;;28.75;11.75;;;;;;;-2.54;100.00;101282.53;5222255;28;20491;-78
2022/03/03 06:02:55;;;;;;;22.70;12.57;;;;;;;-2.42;100.00;101273.50;5207309;28;20455;-77
2022/03/03 06:05:28;;;;;;;23.52;11.98;;;;;;;-2.55;100.00;101281.66;5205399;28;20033;-78
2022/03/03 06:08:15;;;;;;;23.08;12.10;;;;;;;-2.40;100.00;101269.28;5223375;28;20039;-78
2022/03/03 06:10:51;;;;;;;24.40;12.10;;;;;;;-2.28;100.00;101269.63;5199243;28;20429;-77
2022/03/03 06:13:27;;;;;;;21.92;11.95;;;;;;;-2.41;100.00;101274.34;5221973;28;20033;-77
2022/03/03 06:15:58;;;;;;;25.52;12.23;;;;;;;-2.44;100.00;101274.28;5197678;28;20516;-77
2022/03/03 06:18:32;;;;;;;18.90;10.23;;;;;;;-2.29;100.00;101273.03;5204771;28;20025;-77
2022/03/03 06:21:03;;;;;;;23.27;11.57;;;;;;;-2.38;100.00;101280.44;5204112;28;20032;-77
2022/03/03 06:23:34;;;;;;;23.55;11.63;;;;;;;-2.42;100.00;101273.50;5202225;28;20025;-77
2022/03/03 06:26:07;;;;;;;23.92;10.82;;;;;;;-2.31;100.00;101266.97;5222485;28;20033;-78
2022/03/03 06:28:38;;;;;;;20.77;10.95;;;;;;;-2.16;100.00;101277.63;5204538;28;20108;-77
2022/03/03 06:31:08;;;;;;;22.30;10.65;;;;;;;-2.24;100.00;101256.09;5195985;28;20124;-78
2022/03/03 06:33:40;;;;;;;23.83;10.85;;;;;;;-2.23;99.62;101264.63;5218277;28;20032;-78
2022/03/03 06:36:11;;;;;;;23.20;11.23;;;;;;;-2.48;100.00;101278.44;5204506;28;20446;-77
2022/03/03 06:38:41;;;;;;;20.13;10.68;;;;;;;-2.62;100.00;101278.88;5222286;28;20100;-77
2022/03/03 06:41:11;;;;;;;24.23;11.13;;;;;;;-2.65;100.00;101286.50;5222164;28;20116;-77
2022/03/03 06:43:42;;;;;;;22.92;10.75;;;;;;;-2.47;100.00;101280.16;5222292;28;20029;-77
2022/03/03 06:46:18;;;;;;;24.38;10.90;;;;;;;-2.45;100.00;101281.09;5222241;28;20025;-78
2022/03/03 06:48:48;;;;;;;;;;;;;;;-2.54;100.00;101273.16;5202532;28;20036;-77
2022/03/03 06:51:21;;;;;;;24.20;10.07;;;;;;;-2.31;100.00;101276.34;5204450;28;19920;-77
2022/03/03 06:53:57;;;;;;;22.48;11.45;;;;;;;-1.94;100.00;101272.25;5204074;28;20276;-77
2022/03/03 06:56:30;;;;;;;24.52;11.52;;;;;;;-1.99;100.00;101266.13;5208485;28;20036;-77
2022/03/03 06:59:02;;;;;;;24.45;11.48;;;;;;;-1.94;100.00;101264.56;5212274;28;20025;-77
2022/03/03 07:01:32;;;;;;;20.40;11.25;;;;;;;-1.86;100.00;101257.91;5221766;28;20060;-77
2022/03/03 07:04:03;;;;;;;23.42;11.43;;;;;;;-2.16;100.00;101262.25;5221731;28;20627;-77
2022/03/03 07:06:33;;;;;;;22.80;12.13;;;;;;;-2.02;100.00;101260.06;5221813;28;20033;-77
2022/03/03 07:09:03;;;;;;;28.52;12.48;;;;;;;-1.88;100.00;101260.44;5203618;28;20025;-77
2022/03/03 07:11:37;;;;;;;23.27;12.30;;;;;;;-1.82;100.00;101258.03;5221554;28;20029;-77
2022/03/03 07:14:07;;;;;;;22.92;13.13;;;;;;;-1.68;100.00;101258.38;5220708;28;20071;-77
2022/03/03 07:16:40;;;;;;;24.30;12.77;;;;;;;-1.87;100.00;101256.19;5215601;28;20504;-77
2022/03/03 07:19:37;;;;;;;23.90;13.07;;;;;;;-1.69;100.00;101254.94;5206413;28;20029;-77
2022/03/03 07:22:18;;;;;;;25.25;12.57;;;;;;;-1.61;100.00;101243.19;5216892;28;20126;-77
2022/03/03 07:25:00;;;;;;;27.70;13.30;;;;;;;-1.38;100.00;101241.16;5220803;28;20024;-77
2022/03/03 07:27:31;;;;;;;25.02;13.95;;;;;;;-1.24;100.00;101239.75;5221034;28;20498;-77
2022/03/03 07:30:07;;;;;;;26.48;14.00;;;;;;;-1.34;100.00;101246.38;5220807;28;20033;-77
2022/03/03 07:32:45;;;;;;;27.63;14.07;;;;;;;-0.63;100.00;101260.72;5212506;28;20116;-77
2022/03/03 07:35:16;;;;;;;27.30;14.50;;;;;;;2.71;96.65;101248.97;5199765;28;20032;-77
2022/03/03 07:37:52;;;;;;;23.98;12.30;;;;;;;5.29;77.53;101247.69;5220941;28;20090;-77
2022/03/03 07:40:26;;;;;;;19.25;11.30;;;;;;;7.45;70.37;101244.22;5220690;28;20036;-78
2022/03/03 07:42:59;;;;;;;16.90;10.13;;;;;;;8.41;66.22;101237.66;5220171;28;20448;-78
2022/03/03 07:45:30;;;;;;;16.95;10.20;;;;;;;8.71;64.39;101245.81;5202644;28;20290;-78
2022/03/03 07:48:00;;;;;;;18.83;11.07;;;;;;;9.64;62.13;101257.06;5220778;28;20554;-78
2022/03/03 07:50:30;;;;;;;18.33;11.48;;;;;;;10.60;58.45;101240.03;5202284;28;20021;-78
2022/03/03 07:53:01;;;;;;;15.25;10.05;;;;;;;9.49;61.77;101258.22;5201766;28;20075;-77
2022/03/03 07:55:34;;;;;;;17.38;10.90;;;;;;;11.44;56.44;101249.06;5221064;28;20023;-78
2022/03/03 07:58:12;;;;;;;17.85;11.43;;;;;;;11.04;57.50;101248.44;5220564;28;20039;-78
2022/03/03 08:00:48;;;;;;;18.98;11.32;;;;;;;11.45;55.37;101240.28;5213668;28;20020;-78
2022/03/03 08:03:22;;;;;;;16.05;10.52;;;;;;;11.02;56.76;101248.53;5202326;28;20032;-78
2022/03/03 08:05:56;;;;;;;18.17;11.45;;;;;;;10.87;58.25;101247.16;5220675;28;20028;-78
2022/03/03 08:08:29;;;;;;;16.73;10.95;;;;;;;10.45;57.18;101244.75;5220595;28;20029;-78
2022/03/03 08:11:04;;;;;;;15.63;10.73;;;;;;;10.04;59.79;101257.94;5220581;28;20047;-78
2022/03/03 08:13:35;;;;;;;19.55;11.32;;;;;;;8.83;63.57;101253.44;5219694;28;20035;-78
2022/03/03 08:16:06;;;;;;;17.33;11.25;;;;;;;9.13;59.66;101252.00;5220559;28;20040;-78
2022/03/03 08:18:36;;;;;;;16.77;11.55;;;;;;;9.98;58.66;101260.66;5220086;28;20108;-78
2022/03/03 08:21:07;;;;;;;16.60;10.98;;;;;;;10.56;59.68;101251.47;5201818;28;20029;-78
2022/03/03 08:23:38;;;;;;;18.67;12.35;;;;;;;11.51;56.55;101245.38;5217694;28;20036;-78
2022/03/03 08:26:12;;;;;;;17.35;12.25;;;;;;;13.73;50.16;101227.41;5213357;28;20540;-79
2022/03/03 08:28:42;;;;;;;17.45;11.85;;;;;;;11.58;52.16;101239.09;5220571;28;20019;-78
2022/03/03 08:31:19;;;;;;;19.67;11.63;;;;;;;10.89;55.94;101247.97;5202153;28;20017;-78
2022/03/03 08:33:53;;;;;;;15.55;11.15;;;;;;;12.16;53.36;101235.56;5219866;28;20283;-78
2022/03/03 08:36:47;;;;;;;15.50;11.13;;;;;;;11.33;54.80;101240.66;5223030;28;20039;-79
2022/03/03 08:39:21;;;;;;;17.40;11.43;;;;;;;11.00;55.69;101250.34;5197430;28;20032;-79
2022/03/03 08:41:56;;;;;;;15.82;11.35;;;;;;;14.17;50.37;101244.97;5225172;28;20021;-78
2022/03/03 08:44:35;;;;;;;16.73;11.88;;;;;;;12.57;50.23;101227.22;5206922;28;20268;-78
2022/03/03 08:47:05;;;;;;;16.15;11.52;;;;;;;10.64;55.30;101233.81;5205680;28;20510;-78
2022/03/03 08:49:40;;;;;;;15.57;11.90;;;;;;;10.07;56.76;101237.84;5224490;28;20025;-78
2022/03/03 08:52:11;;;;;;;18.88;11.40;;;;;;;10.76;57.67;101246.59;5204231;28;20021;-79
2022/03/03 08:54:41;;;;;;;17.58;11.70;;;;;;;13.03;52.64;101225.66;5224521;28;20162;-78
2022/03/03 08:57:11;;;;;;;16.67;11.73;;;;;;;13.68;49.39;101224.94;5224391;28;20025;-78
2022/03/03 08:59:42;;;;;;;17.70;11.97;;;;;;;12.15;51.44;101234.69;5223958;28;20682;-78
2022/03/03 09:02:16;;;;;;;17.63;11.13;;;;;;;13.32;48.50;101230.69;5223689;28;20283;-78
2022/03/03 09:04:47;;;;;;;16.83;10.73;;;;;;;12.01;51.93;101231.66;5206085;28;20314;-78
2022/03/03 09:07:18;;;;;;;16.88;10.82;;;;;;;13.04;48.16;101232.59;5223369;28;20065;-78
2022/03/03 09:09:48;;;;;;;16.70;10.68;;;;;;;12.52;49.13;101226.50;5224052;28;20033;-78
2022/03/03 09:12:18;;;;;;;17.45;11.25;;;;;;;10.91;55.04;101235.75;5223525;28;20502;-78
2022/03/03 09:14:49;;;;;;;16.02;11.23;;;;;;;10.43;54.78;101247.44;5224011;28;20032;-78
2022/03/03 09:17:19;;;;;;;14.95;10.73;;;;;;;9.56;57.26;101245.91;5203940;28;20028;-78
2022/03/03 09:19:49;;;;;;;16.42;11.35;;;;;;;9.05;59.84;101244.31;5219509;28;20058;-78
2022/03/03 09:22:20;;;;;;;18.75;11.75;;;;;;;7.10;64.02;101263.72;5221364;28;20045;-78
2022/03/03 09:24:52;;;;;;;17.10;11.57;;;;;;;6.97;66.59;101264.72;5223256;28;20180;-77
2022/03/03 09:27:23;;;;;;;18.08;11.30;;;;;;;7.27;64.64;101256.59;5205665;28;20551;-78
2022/03/03 09:29:53;;;;;;;21.73;11.50;;;;;;;6.27;66.07;101253.22;5223124;28;20108;-78
2022/03/03 09:32:23;;;;;;;20.95;12.05;;;;;;;5.85;68.82;101256.06;5222774;28;20063;-77
2022/03/03 09:34:53;;;;;;;21.30;12.30;;;;;;;5.58;67.96;101258.81;5192652;28;20026;-77
2022/03/03 09:37:24;;;;;;;23.05;12.60;;;;;;;5.80;70.24;101258.72;5200075;28;20533;-77
2022/03/03 09:39:54;;;;;;;23.50;12.68;;;;;;;5.79;67.74;101253.53;5223054;28;20036;-78
2022/03/03 09:42:31;;;;;;;21.83;13.20;;;;;;;5.68;68.63;101250.97;5204493;28;20888;-78
2022/03/03 09:45:05;;;;;;;24.55;13.50;;;;;;;4.99;70.73;101260.72;5222799;28;20072;-77
2022/03/03 09:47:37;;;;;;;24.60;14.15;;;;;;;5.16;72.67;101258.94;5218221;28;20044;-77
2022/03/03 09:50:08;;;;;;;26.67;13.98;;;;;;;5.67;69.89;101253.56;5222779;28;20136;-78
2022/03/03 09:52:43;;;;;;;24.33;14.65;;;;;;;6.13;69.49;101249.84;5210040;28;20136;-77
2022/03/03 09:55:13;;;;;;;24.33;14.13;;;;;;;6.37;69.08;101250.53;5221624;28;20039;-78
2022/03/03 09:57:43;;;;;;;26.38;14.70;;;;;;;6.48;68.21;101247.84;5222887;28;20104;-78
2022/03/03 10:00:14;;;;;;;26.98;14.88;;;;;;;5.80;69.02;101250.06;5223118;28;20479;-78
2022/03/03 10:03:08;;;;;;;24.17;14.43;;;;;;;5.65;71.18;101239.75;5222868;28;20430;-78
2022/03/03 10:05:47;;;;;;;25.52;14.60;;;;;;;5.83;72.40;101257.81;5193951;28;20102;-78
2022/03/03 10:08:22;;;;;;;27.63;15.57;;;;;;;6.36;71.78;101245.34;5221610;28;20028;-78
2022/03/03 10:10:59;;;;;;;30.17;16.05;;;;;;;6.26;71.66;101241.13;5222924;28;20097;-78
2022/03/03 10:13:50;;;;;;;32.90;17.17;;;;;;;6.78;69.71;101235.44;5223020;28;20023;-78
2022/03/03 10:16:23;;;;;;;31.85;17.25;;;;;;;6.20;71.97;101246.34;5217857;28;20033;-78
2022/03/03 10:19:03;;;;;;;43.75;18.75;;;;;;;5.77;73.40;101244.88;5203991;28;20033;-78
2022/03/03 10:21:38;;;;;;;34.47;18.02;;;;;;;5.81;72.77;101246.59;5219187;28;20036;-78
2022/03/03 10:24:21;;;;;;;31.73;18.25;;;;;;;6.05;74.63;101243.88;5204688;28;20131;-77
2022/03/03 10:27:06;;;;;;;35.10;18.92;;;;;;;6.04;73.18;101243.00;5209817;28;20052;-77
2022/03/03 10:29:36;;;;;;;26.30;13.40;;;;;;;6.68;72.89;101241.63;5212180;28;20432;-77
2022/03/03 10:32:06;;;;;;;33.25;17.85;;;;;;;6.59;71.02;101238.25;5205193;28;20032;-77
2022/03/03 10:34:38;;;;;;;31.17;18.88;;;;;;;6.10;74.05;101252.47;5205003;28;20104;-78
2022/03/03 10:37:10;;;;;;;35.03;19.35;;;;;;;5.78;75.21;101254.38;5205930;28;20032;-77
2022/03/03 10:39:43;;;;;;;41.40;20.65;;;;;;;5.79;75.00;101253.53;5197960;28;20017;-77
2022/03/03 10:42:14;;;;;;;34.40;18.45;;;;;;;5.84;73.97;101255.22;5200569;28;20058;-77
2022/03/03 10:44:46;;;;;;;36.33;18.55;;;;;;;6.05;74.63;101241.28;5200235;28;20491;-77
2022/03/03 10:47:17;;;;;;;36.58;18.42;;;;;;;6.32;73.87;101231.56;5209714;28;20104;-77
2022/03/03 10:49:49;;;;;;;33.72;18.23;;;;;;;6.32;72.08;101228.97;5206945;28;20030;-77
2022/03/03 10:52:24;;;;;;;40.55;18.98;;;;;;;6.36;72.18;101227.19;5216313;28;20033;-77
2022/03/03 10:55:06;;;;;;;36.47;17.02;;;;;;;6.67;70.31;101224.31;5203883;28;20064;-77
2022/03/03 10:57:43;;;;;;;34.70;18.15;;;;;;;6.55;70.75;101228.75;5212850;28;20057;-77
2022/03/03 11:00:26;;;;;;;32.13;16.85;;;;;;;6.34;70.52;101240.19;5199887;28;20029;-77
2022/03/03 11:03:00;;;;;;;32.05;18.17;;;;;;;6.12;72.26;101236.00;5209500;28;20467;-77
2022/03/03 11:05:31;;;;;;;29.70;16.73;;;;;;;6.36;72.46;101240.16;5184971;28;20824;-77
2022/03/03 11:08:01;;;;;;;31.95;16.48;;;;;;;6.48;71.57;101229.69;5198965;28;20033;-77
2022/03/03 11:10:32;;;;;;;27.02;14.68;;;;;;;6.32;69.82;101235.88;5188403;28;20017;-77
2022/03/03 11:13:04;;;;;;;34.83;16.23;;;;;;;6.44;70.09;101220.19;5201039;28;20025;-77
2022/03/03 11:15:35;;;;;;;31.98;16.73;;;;;;;6.39;69.39;101222.00;5219069;28;20029;-78
2022/03/03 11:18:06;;;;;;;31.02;15.60;;;;;;;6.47;68.50;101220.16;5218376;28;20090;-77
2022/03/03 11:20:36;;;;;;;26.45;13.88;;;;;;;6.74;68.20;101217.34;5220871;28;20027;-78
2022/03/03 11:23:07;;;;;;;33.13;16.27;;;;;;;6.50;70.86;101221.00;5218421;28;20075;-77
2022/03/03 11:25:38;;;;;;;27.25;13.90;;;;;;;6.49;68.68;101218.41;5221171;28;20406;-77
2022/03/03 11:28:15;;;;;;;25.50;13.07;;;;;;;6.54;67.69;101214.91;5212914;28;20037;-78